Time;durP1;ratioP1;P1;durP2;ratioP2;P2;SDS_P1;SDS_P2;PMS_P1;PMS_P2;Temp;Humidity;BMP_temperature;BMP_pressure;BME280_temperature;BME280_humidity;BME280_pressure;Samples;Min_cycle;Max_cycle;Signal;HPM_P1;HPM_P2
2023/07/05 00:01:18;;;;;;;1.40;1.35;;;15.80;99.90;;;;;;5133662;27;20043;-94
2023/07/05 00:03:43;;;;;;;1.40;1.35;;;15.80;99.90;;;;;;5140005;27;20031;-93
2023/07/05 00:06:09;;;;;;;1.45;1.38;;;15.80;99.90;;;;;;5133994;27;20053;-93
2023/07/05 00:08:35;;;;;;;1.50;1.40;;;15.80;99.90;;;;;;5133279;27;20046;-92
2023/07/05 00:11:03;;;;;;;1.55;1.45;;;15.80;99.90;;;;;;5133553;27;20034;-93
2023/07/05 00:13:32;;;;;;;1.45;1.40;;;15.80;99.90;;;;;;5136342;27;20134;-93
2023/07/05 00:15:59;;;;;;;1.40;1.35;;;15.80;99.90;;;;;;5136702;27;20270;-91
2023/07/05 00:18:28;;;;;;;1.48;1.40;;;15.80;99.90;;;;;;5144926;27;20062;-94
2023/07/05 00:21:06;;;;;;;1.33;1.33;;;15.90;99.90;;;;;;5162624;27;20045;-93
2023/07/05 00:23:34;;;;;;;1.40;1.35;;;15.90;99.90;;;;;;5133902;27;20101;-92
2023/07/05 00:26:00;;;;;;;1.33;1.33;;;15.90;99.90;;;;;;5139222;27;20117;-94
2023/07/05 00:28:26;;;;;;;1.35;1.33;;;15.80;99.90;;;;;;5135868;27;20074;-93
2023/07/05 00:31:01;;;;;;;1.40;1.35;;;15.90;99.90;;;;;;5149389;27;20073;-94
2023/07/05 00:33:27;;;;;;;1.35;1.33;;;15.90;99.90;;;;;;5137331;27;20121;-94
2023/07/05 00:35:56;;;;;;;1.48;1.40;;;15.90;99.90;;;;;;5128073;27;20129;-93
2023/07/05 00:38:22;;;;;;;1.30;1.30;;;15.90;99.90;;;;;;5144876;27;20037;-93
2023/07/05 00:40:48;;;;;;;1.40;1.35;;;15.90;99.90;;;;;;5138479;27;20083;-94
2023/07/05 00:43:15;;;;;;;1.27;1.27;;;15.90;99.90;;;;;;5134396;27;20095;-93
2023/07/05 00:46:01;;;;;;;1.27;1.27;;;15.90;99.90;;;;;;5152614;27;20443;-94
2023/07/05 00:48:47;;;;;;;1.33;1.30;;;15.90;99.90;;;;;;5140320;27;20041;-93
2023/07/05 00:51:29;;;;;;;1.23;1.23;;;15.90;99.90;;;;;;5140453;27;20076;-94
2023/07/05 00:54:07;;;;;;;1.23;1.23;;;15.90;99.90;;;;;;5138799;27;20112;-92
2023/07/05 00:56:56;;;;;;;1.17;1.17;;;16.00;99.90;;;;;;5139233;27;20030;-94
2023/07/05 00:59:24;;;;;;;1.10;1.10;;;16.00;99.90;;;;;;5143538;27;20061;-95
2023/07/05 01:01:50;;;;;;;1.05;1.05;;;16.00;99.90;;;;;;5134639;27;20050;-91
2023/07/05 01:04:19;;;;;;;1.08;1.08;;;16.00;99.90;;;;;;5139274;27;20061;-94
2023/07/05 01:06:47;;;;;;;1.10;1.10;;;16.00;99.90;;;;;;5138227;27;20046;-90
2023/07/05 01:09:12;;;;;;;1.13;1.13;;;15.90;99.90;;;;;;5133284;27;20062;-93
2023/07/05 01:11:55;;;;;;;1.05;1.05;;;15.90;99.90;;;;;;5134146;27;20078;-88
2023/07/05 01:14:41;;;;;;;1.08;1.08;;;15.80;99.90;;;;;;5130175;27;20057;-89
2023/07/05 01:17:35;;;;;;;1.02;1.02;;;15.70;99.90;;;;;;5144019;27;20046;-88
2023/07/05 01:20:11;;;;;;;1.00;1.00;;;15.70;99.90;;;;;;5149323;27;20041;-91
2023/07/05 01:23:07;;;;;;;1.10;1.10;;;15.60;99.90;;;;;;5148292;27;20058;-89
2023/07/05 01:25:36;;;;;;;1.02;1.02;;;15.50;99.90;;;;;;5129639;27;20048;-93
2023/07/05 01:28:32;;;;;;;1.00;1.00;;;15.30;99.90;;;;;;5132799;27;20049;-95
2023/07/05 01:31:35;;;;;;;0.93;0.93;;;15.30;99.90;;;;;;5133072;27;20038;-90
2023/07/05 01:34:13;;;;;;;1.00;1.00;;;15.30;99.90;;;;;;5151683;27;20077;-90
2023/07/05 01:36:39;;;;;;;1.00;1.00;;;15.10;99.90;;;;;;5134552;27;20042;-90
2023/07/05 01:39:07;;;;;;;1.00;1.00;;;15.10;99.90;;;;;;5134845;27;20077;-88
2023/07/05 01:41:33;;;;;;;1.00;1.00;;;15.00;99.90;;;;;;5136874;27;20091;-92
2023/07/05 01:44:06;;;;;;;1.00;1.00;;;15.10;99.90;;;;;;5153185;27;20042;-95
2023/07/05 01:47:20;;;;;;;1.00;1.00;;;15.10;99.90;;;;;;5131987;27;20037;-96
2023/07/05 01:50:29;;;;;;;1.00;1.00;;;15.10;99.90;;;;;;5128266;27;20125;-93
2023/07/05 01:53:32;;;;;;;1.00;1.00;;;15.00;99.90;;;;;;5155494;27;20046;-89
2023/07/05 01:56:05;;;;;;;1.08;1.08;;;15.00;99.90;;;;;;5125069;27;20523;-95
2023/07/05 01:58:42;;;;;;;1.00;1.00;;;14.90;99.90;;;;;;5134298;27;20050;-95
2023/07/05 02:01:27;;;;;;;1.00;1.00;;;14.90;99.90;;;;;;5155550;27;20038;-94
2023/07/05 02:03:53;;;;;;;1.00;1.00;;;15.00;99.90;;;;;;5153523;27;20093;-87
2023/07/05 02:06:21;;;;;;;1.10;1.10;;;15.00;99.90;;;;;;5139137;27;20046;-96
2023/07/05 02:08:50;;;;;;;1.00;1.00;;;15.00;99.90;;;;;;5137914;27;21617;-94
2023/07/05 02:11:16;;;;;;;1.00;1.00;;;15.00;99.90;;;;;;5137399;27;20038;-93
2023/07/05 02:13:54;;;;;;;1.00;1.00;;;15.00;99.90;;;;;;5134585;27;20041;-95
2023/07/05 02:16:23;;;;;;;1.00;1.00;;;14.90;99.90;;;;;;5139055;27;20045;-92
2023/07/05 02:18:51;;;;;;;1.00;1.00;;;14.90;99.90;;;;;;5139765;27;20053;-94
2023/07/05 02:21:17;;;;;;;1.00;1.00;;;14.80;99.90;;;;;;5154130;27;20058;-95
2023/07/05 02:23:51;;;;;;;1.10;1.10;;;14.80;99.90;;;;;;5137203;27;20089;-96
2023/07/05 02:26:25;;;;;;;1.02;1.02;;;14.80;99.90;;;;;;5139463;27;20057;-93
2023/07/05 02:29:00;;;;;;;1.00;1.00;;;14.80;99.90;;;;;;5144914;27;20057;-96
2023/07/05 02:31:29;;;;;;;1.30;1.30;;;14.90;99.90;;;;;;5133192;27;20518;-94
2023/07/05 02:34:01;;;;;;;1.70;1.60;;;14.70;99.90;;;;;;5144241;27;20043;-94
2023/07/05 02:36:29;;;;;;;1.80;1.70;;;14.70;99.90;;;;;;5137018;27;20498;-92
2023/07/05 02:39:59;;;;;;;1.60;1.50;;;14.80;99.90;;;;;;5139179;27;20094;-93
2023/07/05 02:42:40;;;;;;;1.77;1.67;;;14.80;99.90;;;;;;5160322;27;20042;-94
2023/07/05 02:45:12;;;;;;;1.80;1.70;;;14.70;99.90;;;;;;5129777;27;20047;-95
2023/07/05 02:47:38;;;;;;;1.70;1.60;;;14.90;99.90;;;;;;5138825;27;20075;-95
2023/07/05 02:50:04;;;;;;;1.70;1.60;;;14.80;99.90;;;;;;5140068;27;20046;-91
2023/07/05 02:52:30;;;;;;;0.60;0.60;;;14.90;99.90;;;;;;5142521;27;20090;-94
2023/07/05 02:54:55;;;;;;;0.60;0.60;;;15.00;99.90;;;;;;5132741;27;20042;-92
2023/07/05 02:57:21;;;;;;;0.60;0.60;;;14.80;99.90;;;;;;5152187;27;20049;-92
2023/07/05 02:59:46;;;;;;;0.60;0.60;;;15.00;99.90;;;;;;5132950;27;20068;-87
2023/07/05 03:02:21;;;;;;;0.60;0.60;;;14.80;99.90;;;;;;5149576;27;20239;-90
2023/07/05 03:04:50;;;;;;;0.60;0.60;;;14.90;99.90;;;;;;5139767;27;21013;-94
2023/07/05 03:07:16;;;;;;;0.60;0.60;;;15.10;99.90;;;;;;5134608;27;20121;-92
2023/07/05 03:09:48;;;;;;;0.70;0.70;;;14.90;99.90;;;;;;5129534;27;20597;-91
2023/07/05 03:12:20;;;;;;;0.70;0.70;;;15.10;99.90;;;;;;5150560;27;20037;-90
2023/07/05 03:14:46;;;;;;;0.70;0.70;;;15.00;99.90;;;;;;5134607;27;20663;-91
2023/07/05 03:17:12;;;;;;;0.80;0.80;;;15.00;99.90;;;;;;5147697;27;20038;-92
2023/07/05 03:19:37;;;;;;;0.77;0.77;;;15.20;99.90;;;;;;5137997;27;20037;-90
2023/07/05 03:22:29;;;;;;;0.80;0.80;;;15.20;99.90;;;;;;5133804;27;20097;-96
2023/07/05 03:24:55;;;;;;;0.77;0.77;;;15.20;99.90;;;;;;5137858;27;20061;-92
2023/07/05 03:27:21;;;;;;;0.80;0.80;;;15.20;99.90;;;;;;5145541;27;20054;-91
2023/07/05 03:29:56;;;;;;;0.80;0.80;;;15.00;99.90;;;;;;5140594;27;20035;-96
2023/07/05 03:32:22;;;;;;;0.80;0.80;;;15.20;99.90;;;;;;5139274;27;20035;-92
2023/07/05 03:34:55;;;;;;;0.82;0.82;;;15.20;99.90;;;;;;5154125;27;20042;-93
2023/07/05 03:37:36;;;;;;;0.90;0.90;;;15.20;99.90;;;;;;5165673;27;20042;-94
2023/07/05 03:40:02;;;;;;;0.90;0.90;;;15.40;99.90;;;;;;5137949;27;20065;-87
2023/07/05 03:42:30;;;;;;;0.98;0.98;;;15.40;99.90;;;;;;5150088;27;21866;-93
2023/07/05 03:44:59;;;;;;;0.93;0.93;;;15.60;99.90;;;;;;5142494;27;20030;-93
2023/07/05 03:47:27;;;;;;;0.90;0.90;;;15.70;99.90;;;;;;5139735;27;20833;-95
2023/07/05 03:49:53;;;;;;;1.00;1.00;;;15.70;99.90;;;;;;5162179;27;20038;-94
2023/07/05 03:55:08;;;;;;;0.93;0.93;;;15.80;99.90;;;;;;5145650;27;20690;-90
2023/07/05 03:57:34;;;;;;;0.90;0.90;;;15.60;99.90;;;;;;5130802;27;20046;-93
2023/07/05 04:00:08;;;;;;;0.90;0.90;;;15.60;99.90;;;;;;5139873;27;20041;-90
2023/07/05 04:02:34;;;;;;;0.90;0.90;;;15.80;99.90;;;;;;5154823;27;20046;-92
2023/07/05 04:05:00;;;;;;;0.80;0.80;;;16.00;99.90;;;;;;5139603;27;20044;-91
2023/07/05 04:07:26;;;;;;;0.80;0.80;;;15.90;99.90;;;;;;5126963;27;20039;-88
2023/07/05 04:09:51;;;;;;;0.80;0.80;;;16.00;99.90;;;;;;5153597;27;20078;-88
2023/07/05 04:12:17;;;;;;;0.80;0.80;;;16.10;99.90;;;;;;5130080;27;20522;-89
2023/07/05 04:14:44;;;;;;;0.70;0.70;;;16.30;99.90;;;;;;5133431;27;20125;-91
2023/07/05 04:17:10;;;;;;;0.70;0.70;;;16.20;99.90;;;;;;5132322;27;20054;-87
2023/07/05 04:19:35;;;;;;;0.70;0.70;;;16.40;99.90;;;;;;5157527;27;20044;-90
2023/07/05 04:22:07;;;;;;;0.70;0.70;;;16.40;99.90;;;;;;5145512;27;20041;-91
2023/07/05 04:24:36;;;;;;;0.90;0.90;;;16.40;99.90;;;;;;5128933;27;20053;-95
2023/07/05 04:27:02;;;;;;;0.70;0.70;;;16.40;99.90;;;;;;5151364;27;20042;-84
2023/07/05 04:29:32;;;;;;;0.70;0.70;;;16.30;99.90;;;;;;5131036;27;20058;-94
2023/07/05 04:31:58;;;;;;;0.80;0.80;;;16.40;99.90;;;;;;5147701;27;20061;-94
2023/07/05 04:34:24;;;;;;;0.73;0.73;;;16.40;99.90;;;;;;5130327;27;20035;-83
2023/07/05 04:36:50;;;;;;;0.70;0.70;;;16.30;99.90;;;;;;5149948;27;20050;-87
2023/07/05 04:39:15;;;;;;;0.77;0.77;;;16.30;99.90;;;;;;5129850;27;20376;-83
2023/07/05 04:41:41;;;;;;;0.80;0.80;;;16.20;99.90;;;;;;5146872;27;20130;-87
2023/07/05 04:44:09;;;;;;;0.77;0.77;;;16.00;99.90;;;;;;5169261;27;20042;-83
2023/07/05 04:46:35;;;;;;;0.80;0.80;;;16.00;99.90;;;;;;5154791;27;20096;-90
2023/07/05 04:49:00;;;;;;;0.80;0.80;;;15.90;99.90;;;;;;5131055;27;20479;-83
2023/07/05 04:51:26;;;;;;;0.80;0.80;;;15.80;99.90;;;;;;5146035;27;20530;-85
2023/07/05 04:53:51;;;;;;;0.80;0.80;;;15.70;99.90;;;;;;5123954;27;20141;-82
2023/07/05 04:56:17;;;;;;;0.80;0.80;;;15.50;99.90;;;;;;5140671;27;20139;-82
2023/07/05 04:58:43;;;;;;;0.82;0.82;;;15.40;99.90;;;;;;5147910;27;20093;-81
2023/07/05 05:01:10;;;;;;;0.75;0.75;;;15.30;99.90;;;;;;5146142;27;20046;-80
2023/07/05 05:03:36;;;;;;;0.90;0.90;;;15.20;99.90;;;;;;5142253;27;20057;-79
2023/07/05 05:06:02;;;;;;;0.80;0.80;;;15.10;99.90;;;;;;5141258;27;20054;-84
2023/07/05 05:08:28;;;;;;;0.90;0.90;;;15.10;99.90;;;;;;5143907;27;20046;-84
2023/07/05 05:11:02;;;;;;;0.80;0.80;;;15.00;99.90;;;;;;5141677;27;20034;-82
2023/07/05 05:13:30;;;;;;;0.70;0.70;;;15.00;99.90;;;;;;5151848;27;20073;-82
2023/07/05 05:15:56;;;;;;;0.60;0.60;;;15.20;99.90;;;;;;5140832;27;20455;-84
2023/07/05 05:18:23;;;;;;;0.60;0.60;;;15.80;99.90;;;;;;5140905;27;20101;-85
2023/07/05 05:20:49;;;;;;;0.60;0.60;;;15.50;99.90;;;;;;5138931;27;20074;-86
2023/07/05 05:23:15;;;;;;;0.60;0.60;;;15.50;99.90;;;;;;5141232;27;20050;-84
2023/07/05 05:25:44;;;;;;;0.60;0.60;;;15.40;99.90;;;;;;5147190;27;20046;-84
2023/07/05 05:28:11;;;;;;;0.60;0.60;;;15.30;99.90;;;;;;5158631;27;20425;-83
2023/07/05 05:30:37;;;;;;;0.60;0.60;;;15.30;99.90;;;;;;5127619;27;20473;-82
2023/07/05 05:33:03;;;;;;;0.60;0.60;;;15.20;99.90;;;;;;5126207;27;20133;-87
2023/07/05 05:35:31;;;;;;;0.60;0.60;;;15.30;99.90;;;;;;5144811;27;20122;-93
2023/07/05 05:37:57;;;;;;;0.60;0.60;;;15.30;99.90;;;;;;5145772;27;20029;-84
2023/07/05 05:40:23;;;;;;;0.60;0.60;;;15.20;99.90;;;;;;5147144;27;20148;-90
2023/07/05 05:42:48;;;;;;;0.60;0.60;;;15.30;99.90;;;;;;5143813;27;20050;-84
2023/07/05 05:45:14;;;;;;;0.50;0.50;;;15.30;99.90;;;;;;5143698;27;20041;-83
2023/07/05 05:47:40;;;;;;;0.50;0.50;;;15.40;99.90;;;;;;5159032;27;20129;-80
2023/07/05 05:50:06;;;;;;;0.50;0.50;;;15.40;99.90;;;;;;5158041;27;20042;-83
2023/07/05 05:52:32;;;;;;;0.50;0.50;;;15.40;99.90;;;;;;5144530;27;20112;-85
2023/07/05 05:54:58;;;;;;;0.60;0.60;;;15.40;99.90;;;;;;5124726;27;20042;-84
2023/07/05 05:57:24;;;;;;;0.60;0.60;;;15.50;99.90;;;;;;5148415;27;20050;-84
2023/07/05 05:59:49;;;;;;;0.50;0.50;;;15.60;99.90;;;;;;5149934;27;20038;-85
2023/07/05 06:02:16;;;;;;;0.60;0.60;;;15.70;99.90;;;;;;5148695;27;20049;-84
2023/07/05 06:04:42;;;;;;;0.60;0.60;;;15.60;99.90;;;;;;5152893;27;20385;-84
2023/07/05 06:07:07;;;;;;;0.50;0.50;;;15.60;99.90;;;;;;5159993;27;20073;-82
2023/07/05 06:09:43;;;;;;;0.60;0.60;;;15.70;99.90;;;;;;5155708;27;20084;-85
2023/07/05 06:12:09;;;;;;;0.70;0.70;;;15.50;99.90;;;;;;5152578;27;20465;-85
2023/07/05 06:14:38;;;;;;;0.60;0.60;;;15.50;99.90;;;;;;5144447;27;20070;-86
2023/07/05 06:17:04;;;;;;;0.60;0.60;;;15.50;99.90;;;;;;5147674;27;20102;-84
2023/07/05 06:19:29;;;;;;;0.60;0.60;;;15.50;99.90;;;;;;5132241;27;20050;-86
2023/07/05 06:21:55;;;;;;;0.60;0.60;;;15.40;99.90;;;;;;5128595;27;20049;-83
2023/07/05 06:24:21;;;;;;;0.60;0.60;;;15.50;99.90;;;;;;5138485;27;20756;-92
2023/07/05 06:26:46;;;;;;;0.60;0.60;;;15.50;99.90;;;;;;5148024;27;20046;-82
2023/07/05 06:29:12;;;;;;;0.60;0.60;;;15.60;99.90;;;;;;5150682;27;20530;-85
2023/07/05 06:31:38;;;;;;;0.60;0.60;;;15.80;99.90;;;;;;5153535;27;20034;-82
2023/07/05 06:34:03;;;;;;;0.50;0.50;;;15.90;99.90;;;;;;5125919;27;20035;-88
2023/07/05 06:36:29;;;;;;;0.60;0.60;;;16.10;99.90;;;;;;5158277;27;20045;-83
2023/07/05 06:38:55;;;;;;;0.50;0.50;;;16.20;99.90;;;;;;5128389;27;20068;-84
2023/07/05 06:41:20;;;;;;;0.60;0.60;;;16.30;99.90;;;;;;5151690;27;20038;-79
2023/07/05 06:43:46;;;;;;;0.60;0.60;;;16.10;99.90;;;;;;5153304;27;20145;-88
2023/07/05 06:46:12;;;;;;;0.65;0.65;;;16.00;99.90;;;;;;5153357;27;20037;-80
2023/07/05 06:48:40;;;;;;;0.65;0.65;;;16.00;99.90;;;;;;5147112;27;20042;-89
2023/07/05 06:51:05;;;;;;;0.60;0.60;;;16.00;99.90;;;;;;5131011;27;20034;-85
2023/07/05 06:53:31;;;;;;;0.68;0.68;;;16.00;99.90;;;;;;5157703;27;20395;-81
2023/07/05 06:56:00;;;;;;;0.70;0.70;;;15.90;99.90;;;;;;5149753;27;20038;-88
2023/07/05 06:58:25;;;;;;;0.68;0.68;;;15.80;99.90;;;;;;5147393;27;20041;-86
2023/07/05 07:00:51;;;;;;;0.60;0.60;;;15.90;99.90;;;;;;5154276;27;20179;-89
2023/07/05 07:03:18;;;;;;;0.65;0.65;;;15.80;99.90;;;;;;5153459;27;20042;-85
2023/07/05 07:05:52;;;;;;;0.60;0.60;;;15.80;99.90;;;;;;5152477;27;20045;-82
2023/07/05 07:08:19;;;;;;;0.68;0.68;;;15.90;99.90;;;;;;5136812;27;20074;-80
2023/07/05 07:10:44;;;;;;;0.70;0.70;;;15.80;99.90;;;;;;5147685;27;20394;-83
2023/07/05 07:13:10;;;;;;;0.68;0.68;;;15.80;99.90;;;;;;5140216;27;20120;-83
2023/07/05 07:15:36;;;;;;;0.60;0.60;;;15.90;99.90;;;;;;5143089;27;20066;-87
2023/07/05 07:18:02;;;;;;;0.57;0.57;;;16.00;99.90;;;;;;5147156;27;20125;-80
2023/07/05 07:20:28;;;;;;;0.60;0.60;;;16.00;99.90;;;;;;5147702;27;20057;-82
2023/07/05 07:22:57;;;;;;;0.60;0.60;;;16.00;99.90;;;;;;5132362;27;20045;-85
2023/07/05 07:25:22;;;;;;;0.60;0.60;;;16.00;99.90;;;;;;5121099;27;20054;-81
2023/07/05 07:27:48;;;;;;;0.70;0.70;;;16.00;99.90;;;;;;5148926;27;20189;-85
2023/07/05 07:30:14;;;;;;;0.60;0.60;;;15.90;99.90;;;;;;5144846;27;20043;-83
2023/07/05 07:32:40;;;;;;;0.60;0.60;;;16.10;99.90;;;;;;5142084;27;20046;-88
2023/07/05 07:35:07;;;;;;;0.60;0.60;;;16.20;99.90;;;;;;5147799;27;20052;-84
2023/07/05 07:37:33;;;;;;;0.70;0.70;;;16.20;99.90;;;;;;5152209;27;20045;-81
2023/07/05 07:39:59;;;;;;;0.60;0.60;;;16.20;99.90;;;;;;5150045;27;20054;-78
2023/07/05 07:42:24;;;;;;;0.73;0.73;;;16.10;99.90;;;;;;5130730;27;20038;-80
2023/07/05 07:44:53;;;;;;;0.75;0.75;;;15.70;99.90;;;;;;5145923;27;20047;-80
2023/07/05 07:47:19;;;;;;;0.80;0.80;;;15.40;99.90;;;;;;5147308;27;20046;-77
2023/07/05 07:49:44;;;;;;;0.80;0.80;;;15.00;99.90;;;;;;5175407;27;20049;-81
2023/07/05 07:52:11;;;;;;;0.70;0.70;;;15.00;99.90;;;;;;5147922;27;20450;-77
2023/07/05 07:54:38;;;;;;;0.70;0.70;;;15.30;99.90;;;;;;5165540;27;20046;-84
2023/07/05 07:57:05;;;;;;;0.70;0.70;;;15.20;99.90;;;;;;5146299;27;20046;-80
2023/07/05 07:59:31;;;;;;;0.70;0.70;;;15.10;99.90;;;;;;5149966;27;20093;-79
2023/07/05 08:01:57;;;;;;;0.70;0.70;;;15.10;99.90;;;;;;5143679;27;20050;-82
2023/07/05 08:04:22;;;;;;;0.65;0.65;;;15.40;99.90;;;;;;5153142;27;20039;-82
2023/07/05 08:06:50;;;;;;;0.60;0.60;;;15.40;99.90;;;;;;5140076;27;20042;-82
2023/07/05 08:09:21;;;;;;;0.60;0.60;;;15.70;99.90;;;;;;5139666;27;20038;-83
2023/07/05 08:11:47;;;;;;;0.70;0.70;;;15.70;99.90;;;;;;5150864;27;20053;-78
2023/07/05 08:14:13;;;;;;;0.80;0.80;;;15.50;99.90;;;;;;5146868;27;20053;-82
2023/07/05 08:16:40;;;;;;;0.80;0.80;;;15.30;99.90;;;;;;5154859;27;20418;-82
2023/07/05 08:19:06;;;;;;;0.80;0.80;;;15.10;99.90;;;;;;5173746;27;20042;-81
2023/07/05 08:21:32;;;;;;;0.77;0.77;;;14.80;99.90;;;;;;5150310;27;20550;-82
2023/07/05 08:23:58;;;;;;;0.73;0.73;;;14.50;99.90;;;;;;5149222;27;20102;-83
2023/07/05 08:26:23;;;;;;;0.70;0.70;;;14.20;99.90;;;;;;5151330;27;20457;-85
2023/07/05 08:28:49;;;;;;;0.80;0.80;;;14.20;99.90;;;;;;5150726;27;20688;-81
2023/07/05 08:31:15;;;;;;;0.80;0.80;;;14.10;99.90;;;;;;5151530;27;20121;-78
2023/07/05 08:33:41;;;;;;;0.90;0.90;;;14.10;99.90;;;;;;5133727;27;20050;-83
2023/07/05 08:36:18;;;;;;;0.90;0.90;;;14.00;99.90;;;;;;5146315;27;20048;-83
2023/07/05 08:38:49;;;;;;;0.90;0.90;;;13.90;99.90;;;;;;5151029;27;20121;-84
2023/07/05 08:41:44;;;;;;;0.90;0.90;;;13.80;99.90;;;;;;5152959;27;20130;-83
2023/07/05 08:44:21;;;;;;;3.42;1.52;;;13.90;99.90;;;;;;5153723;27;20049;-83
2023/07/05 08:47:32;;;;;;;0.98;0.98;;;13.80;99.90;;;;;;5149515;27;20094;-91
2023/07/05 08:50:07;;;;;;;0.85;0.85;;;13.80;99.90;;;;;;5154524;27;21575;-87
2023/07/05 08:52:42;;;;;;;0.90;0.90;;;13.90;99.90;;;;;;5151537;27;20498;-82
2023/07/05 08:55:15;;;;;;;0.90;0.90;;;13.80;99.90;;;;;;5150924;27;20046;-83
2023/07/05 08:57:54;;;;;;;1.00;1.00;;;14.00;99.90;;;;;;5153811;27;20505;-83
2023/07/05 09:00:57;;;;;;;0.90;0.90;;;14.00;99.90;;;;;;5151702;27;20811;-81
2023/07/05 09:03:28;;;;;;;1.10;1.10;;;13.90;99.90;;;;;;5040191;28;20159;-84
2023/07/05 09:06:21;;;;;;;1.00;1.00;;;14.00;99.90;;;;;;5138659;27;20583;-82
2023/07/05 09:09:02;;;;;;;1.02;1.02;;;13.90;99.90;;;;;;5153033;27;20438;-87
2023/07/05 09:12:08;;;;;;;1.30;1.30;;;13.90;99.90;;;;;;5136219;27;20617;-84
2023/07/05 09:15:01;;;;;;;1.65;1.55;;;13.60;99.90;;;;;;5147295;27;20293;-81
2023/07/05 09:17:38;;;;;;;1.75;1.65;;;13.70;99.90;;;;;;5144821;27;20098;-79
2023/07/05 09:20:25;;;;;;;1.85;1.75;;;13.70;99.90;;;;;;5174487;27;20061;-84
2023/07/05 09:22:52;;;;;;;1.77;1.67;;;13.50;99.90;;;;;;5151883;27;20077;-78
2023/07/05 09:25:23;;;;;;;1.67;1.58;;;13.50;99.90;;;;;;5151522;27;20045;-77
2023/07/05 09:27:55;;;;;;;1.77;1.67;;;13.50;99.90;;;;;;5151313;27;20103;-81
2023/07/05 09:30:24;;;;;;;1.75;1.65;;;13.40;99.90;;;;;;5153521;27;20042;-82
2023/07/05 09:33:10;;;;;;;1.83;1.73;;;13.50;99.90;;;;;;5152714;27;20042;-86
2023/07/05 09:35:40;;;;;;;1.75;1.65;;;13.50;99.90;;;;;;5150322;27;20078;-77
2023/07/05 09:38:47;;;;;;;1.90;1.80;;;13.40;99.90;;;;;;5152545;27;20060;-79
2023/07/05 09:41:18;;;;;;;2.05;1.95;;;13.30;99.90;;;;;;5085405;28;20051;-82
2023/07/05 09:43:44;;;;;;;3.10;2.90;;;13.30;99.90;;;;;;5087032;28;20511;-84
2023/07/05 09:46:26;;;;;;;3.72;3.53;;;13.40;99.90;;;;;;5130075;27;20057;-78
2023/07/05 09:48:54;;;;;;;3.45;3.25;;;13.50;99.90;;;;;;5182892;27;20045;-78
2023/07/05 09:51:21;;;;;;;3.10;2.90;;;13.50;99.90;;;;;;5156348;27;20065;-79
2023/07/05 09:53:52;;;;;;;3.15;2.95;;;13.60;99.90;;;;;;5160989;27;20045;-80
2023/07/05 09:56:30;;;;;;;3.60;3.40;;;13.60;99.90;;;;;;5146202;27;20057;-80
2023/07/05 09:59:21;;;;;;;3.55;3.35;;;13.60;99.90;;;;;;5134980;27;20037;-78
2023/07/05 10:01:51;;;;;;;3.75;3.55;;;13.70;99.90;;;;;;5147475;27;20521;-79
2023/07/05 10:04:18;;;;;;;3.75;3.55;;;13.80;99.90;;;;;;5151420;27;20134;-77
2023/07/05 10:06:46;;;;;;;3.28;3.08;;;13.80;99.90;;;;;;5160128;27;20085;-80
2023/07/05 10:09:17;;;;;;;3.35;3.15;;;13.90;99.90;;;;;;5180208;27;20451;-78
2023/07/05 10:11:52;;;;;;;3.65;3.45;;;14.00;99.90;;;;;;5153724;27;20038;-78
2023/07/05 10:14:21;;;;;;;3.67;3.47;;;14.10;99.90;;;;;;5146198;27;20046;-81
2023/07/05 10:17:11;;;;;;;3.50;3.30;;;14.00;99.90;;;;;;5146821;27;20125;-76
2023/07/05 10:19:47;;;;;;;3.53;3.33;;;14.10;99.90;;;;;;5150952;27;20439;-78
2023/07/05 10:22:14;;;;;;;3.70;3.50;;;14.10;99.90;;;;;;5147716;27;20077;-79
2023/07/05 10:24:50;;;;;;;3.63;3.42;;;14.00;99.90;;;;;;5174835;27;20538;-77
2023/07/05 10:27:30;;;;;;;3.75;3.55;;;13.90;99.90;;;;;;5146141;27;20125;-78
2023/07/05 10:30:00;;;;;;;3.53;3.33;;;13.90;99.90;;;;;;5148356;27;20090;-82
2023/07/05 10:32:27;;;;;;;3.03;2.83;;;14.00;99.90;;;;;;5144120;27;20041;-79
2023/07/05 10:34:55;;;;;;;2.92;2.72;;;14.10;99.90;;;;;;5150392;27;20053;-77
2023/07/05 10:37:31;;;;;;;3.15;2.95;;;14.10;99.90;;;;;;5157219;27;20046;-81
2023/07/05 10:39:58;;;;;;;3.05;2.85;;;14.10;99.90;;;;;;5155821;27;20715;-81
2023/07/05 10:42:28;;;;;;;3.08;2.88;;;14.10;99.90;;;;;;5151595;27;20049;-80
2023/07/05 10:44:54;;;;;;;3.17;2.97;;;14.00;99.90;;;;;;5149494;27;20039;-79
2023/07/05 10:47:21;;;;;;;3.15;2.95;;;13.90;99.90;;;;;;5172436;27;20750;-80
2023/07/05 10:49:51;;;;;;;3.28;3.08;;;13.80;99.90;;;;;;5154602;27;20102;-80
2023/07/05 10:52:18;;;;;;;3.10;2.90;;;13.90;99.90;;;;;;5148075;27;20038;-77
2023/07/05 10:54:43;;;;;;;3.05;2.85;;;13.80;99.90;;;;;;5150304;27;20042;-75
2023/07/05 10:57:15;;;;;;;3.25;3.05;;;13.70;99.90;;;;;;5153138;27;20051;-78
2023/07/05 10:59:49;;;;;;;3.17;2.97;;;13.60;99.90;;;;;;5147258;27;20046;-80
2023/07/05 11:02:39;;;;;;;3.80;3.60;;;13.50;99.90;;;;;;5139381;27;22060;-78
2023/07/05 11:05:18;;;;;;;3.35;3.15;;;13.30;99.90;;;;;;5143333;27;20038;-82
2023/07/05 11:07:45;;;;;;;3.10;2.90;;;13.30;99.90;;;;;;5182061;27;20106;-77
2023/07/05 11:10:14;;;;;;;3.03;2.83;;;13.40;99.90;;;;;;5131950;27;20103;-77
2023/07/05 11:12:41;;;;;;;2.63;2.50;;;13.40;99.90;;;;;;5180461;27;20739;-81
2023/07/05 11:15:16;;;;;;;2.45;2.35;;;13.50;99.90;;;;;;5151071;27;20046;-77
2023/07/05 11:17:43;;;;;;;2.35;2.25;;;13.50;99.90;;;;;;5140401;27;20042;-77
2023/07/05 11:20:39;;;;;;;2.47;2.38;;;13.40;99.90;;;;;;5163709;27;20053;-79
2023/07/05 11:23:09;;;;;;;2.30;2.20;;;13.30;99.90;;;;;;5142967;27;20077;-79
2023/07/05 11:25:58;;;;;;;2.22;2.13;;;13.40;99.90;;;;;;5134573;27;20129;-79
2023/07/05 11:28:50;;;;;;;2.20;2.10;;;13.50;99.90;;;;;;5150441;27;20055;-79
2023/07/05 11:31:38;;;;;;;2.20;2.10;;;13.40;99.90;;;;;;5139074;27;20129;-80
2023/07/05 11:34:23;;;;;;;2.20;2.10;;;13.60;99.90;;;;;;5150154;27;20046;-82
2023/07/05 11:36:50;;;;;;;2.10;2.00;;;13.60;99.90;;;;;;5138888;27;20039;-85
2023/07/05 11:39:35;;;;;;;1.90;1.80;;;13.60;99.90;;;;;;5141717;27;20407;-77
2023/07/05 11:42:16;;;;;;;2.00;1.90;;;13.70;99.90;;;;;;5139107;27;20061;-79
2023/07/05 11:45:07;;;;;;;1.90;1.80;;;13.80;99.90;;;;;;5147761;27;20050;-79
2023/07/05 11:47:33;;;;;;;1.90;1.80;;;13.80;99.90;;;;;;5149273;27;20065;-80
2023/07/05 11:50:01;;;;;;;1.75;1.65;;;13.90;99.90;;;;;;5148174;27;20073;-78
2023/07/05 11:53:12;;;;;;;1.75;1.65;;;13.90;99.90;;;;;;5158486;27;20071;-77
2023/07/05 11:55:40;;;;;;;1.70;1.60;;;13.80;99.90;;;;;;5085474;28;20043;-75
2023/07/05 11:58:18;;;;;;;1.80;1.70;;;13.70;99.90;;;;;;5084059;28;20503;-78
2023/07/05 12:01:02;;;;;;;1.70;1.60;;;13.70;99.90;;;;;;5121083;27;20145;-81
2023/07/05 12:03:31;;;;;;;1.80;1.70;;;13.80;99.90;;;;;;5146188;27;20699;-86
2023/07/05 12:06:15;;;;;;;1.70;1.60;;;13.80;99.90;;;;;;5145124;27;20746;-84
2023/07/05 12:08:45;;;;;;;1.88;1.77;;;13.90;99.90;;;;;;5143020;27;20111;-82
2023/07/05 12:11:12;;;;;;;1.80;1.70;;;13.80;99.90;;;;;;5139378;27;20061;-81
2023/07/05 12:13:38;;;;;;;1.65;1.55;;;13.80;99.90;;;;;;5153483;27;20040;-81
2023/07/05 12:16:07;;;;;;;1.77;1.67;;;13.80;99.90;;;;;;5169468;27;20039;-80
2023/07/05 12:18:34;;;;;;;1.77;1.67;;;13.90;99.90;;;;;;5166909;27;20125;-82
2023/07/05 12:21:04;;;;;;;1.70;1.60;;;13.90;99.90;;;;;;5149256;27;20165;-79
2023/07/05 12:23:32;;;;;;;1.70;1.60;;;13.90;99.90;;;;;;5158443;27;20147;-79
2023/07/05 12:26:02;;;;;;;1.70;1.60;;;14.10;99.90;;;;;;5135156;27;20046;-82
2023/07/05 12:28:30;;;;;;;1.75;1.65;;;14.30;99.90;;;;;;5149572;27;20499;-83
2023/07/05 12:31:05;;;;;;;1.63;1.52;;;14.30;99.90;;;;;;5145834;27;21437;-82
2023/07/05 12:33:36;;;;;;;1.80;1.70;;;14.40;99.90;;;;;;5149771;27;20038;-82
2023/07/05 12:36:06;;;;;;;1.75;1.65;;;14.40;99.90;;;;;;5139722;27;20102;-80
2023/07/05 12:38:34;;;;;;;1.92;1.83;;;14.30;99.90;;;;;;5169725;27;20052;-80
2023/07/05 12:41:01;;;;;;;1.77;1.67;;;14.40;99.90;;;;;;5151904;27;20046;-82
2023/07/05 12:43:28;;;;;;;1.83;1.73;;;14.40;99.90;;;;;;5147241;27;20042;-81
2023/07/05 12:46:12;;;;;;;1.75;1.65;;;14.60;99.90;;;;;;5143655;27;20039;-82
2023/07/05 12:48:37;;;;;;;1.85;1.75;;;14.60;99.90;;;;;;5148915;27;20738;-81
2023/07/05 12:51:14;;;;;;;2.50;2.40;;;14.70;99.90;;;;;;5147186;27;20047;-81
2023/07/05 12:53:39;;;;;;;1.92;1.83;;;14.70;99.90;;;;;;5151568;27;20133;-80
2023/07/05 12:56:16;;;;;;;1.85;1.75;;;14.90;99.90;;;;;;5145681;27;20125;-78
2023/07/05 12:58:52;;;;;;;2.03;1.92;;;15.20;99.90;;;;;;5144232;27;20475;-80
2023/07/05 13:01:19;;;;;;;2.08;1.98;;;15.60;99.90;;;;;;5137453;27;20054;-80
2023/07/05 13:03:48;;;;;;;2.42;2.33;;;15.80;99.90;;;;;;5148861;27;20046;-77
2023/07/05 13:06:15;;;;;;;2.58;2.45;;;16.00;99.90;;;;;;5159924;27;20034;-79
2023/07/05 13:08:46;;;;;;;2.45;2.35;;;16.10;99.90;;;;;;5150977;27;20050;-79
2023/07/05 13:11:20;;;;;;;2.45;2.35;;;16.00;99.90;;;;;;5147040;27;21176;-79
2023/07/05 13:14:00;;;;;;;2.05;1.95;;;16.10;99.90;;;;;;5154601;27;20458;-82